Terminal Aerodrome Forecast
Issued by NWS Northern Indiana

Home | Current Version | Previous Version | Text Only | Print | Product List | Glossary Off
Versions: 1 2 3 4 5 6 7 8 9 10 11 12 13 14 15 16 17 18 19

000
FTUS43 KIWX 241443 AAA
TAFFWA
TAF AMD
KFWA 241443Z 2415/2512 20014G21KT P6SM SCT250
     FM241900 20015G22KT P6SM VCSH BKN060
      TEMPO 2421/2423 28025G45KT 3SM -TSRA BKN025CB
     FM250100 23015G22KT 5SM -SHRA OVC025=

USA.gov is the U.S. government's official web portal to all federal, state and local government web resources and services.